Time;durP1;ratioP1;P1;durP2;ratioP2;P2;SDS_P1;SDS_P2;PMS_P1;PMS_P2;Temp;Humidity;BMP_temperature;BMP_pressure;BME280_temperature;BME280_humidity;BME280_pressure;Samples;Min_cycle;Max_cycle;Signal;HPM_P1;HPM_P2
2024/03/27 00:01:10;;;;;;;;;;;;;;;17.54;45.34;100443.63;5036732;28;1414;-48
2024/03/27 00:03:36;;;;;;;;;;;;;;;16.30;46.77;100437.31;5037143;28;1369;-51
2024/03/27 00:06:04;;;;;;;;;;;;;;;15.71;47.36;100425.78;5019611;28;1302;-50
2024/03/27 00:08:29;;;;;;;;;;;;;;;16.49;47.71;100426.13;5036825;28;1902;-51
2024/03/27 00:10:55;;;;;;;;;;;;;;;16.44;47.11;100422.97;5036612;28;1317;-51
2024/03/27 00:13:20;;;;;;;;;;;;;;;15.90;47.12;100420.78;5036815;28;1317;-49
2024/03/27 00:15:52;;;;;;;;;;;;;;;15.56;46.83;100420.66;5036861;28;1341;-50
2024/03/27 00:18:18;;;;;;;;;;;;;;;15.53;46.29;100420.91;5035987;28;1184;-50
2024/03/27 00:20:44;;;;;;;;;;;;;;;15.37;46.69;100426.47;5036531;28;1270;-52
2024/03/27 00:23:09;;;;;;;;;;;;;;;17.20;46.18;100418.00;5047315;28;1134;-50
2024/03/27 00:25:35;;;;;;;;;;;;;;;16.30;47.33;100412.59;5031701;28;1262;-51
2024/03/27 00:28:00;;;;;;;;;;;;;;;15.83;47.33;100414.25;5036764;28;1902;-49
2024/03/27 00:30:26;;;;;;;;;;;;;;;15.50;46.68;100405.19;5036280;28;1337;-49
2024/03/27 00:32:51;;;;;;;;;;;;;;;15.35;46.61;100405.38;5036397;28;1135;-51
2024/03/27 00:35:17;;;;;;;;;;;;;;;15.28;45.69;100412.09;5036010;28;1361;-49
2024/03/27 00:37:43;;;;;;;;;;;;;;;16.89;46.71;100410.66;5036329;28;1108;-50
2024/03/27 00:40:08;;;;;;;;;;;;;;;15.94;47.75;100413.44;5035950;28;1384;-47
2024/03/27 00:42:34;;;;;;;;;;;;;;;15.64;47.26;100412.13;5036469;28;1119;-49
2024/03/27 00:45:00;;;;;;;;;;;;;;;15.36;46.59;100415.03;5036203;28;1408;-46
2024/03/27 00:47:26;;;;;;;;;;;;;;;15.21;46.28;100409.03;5036264;28;1072;-48
2024/03/27 00:49:52;;;;;;;;;;;;;;;16.89;46.55;100413.31;5036124;28;1909;-51
2024/03/27 00:52:18;;;;;;;;;;;;;;;15.76;47.69;100424.50;5035738;28;1372;-49
2024/03/27 00:54:43;;;;;;;;;;;;;;;15.37;47.04;100415.84;5019229;28;1361;-51
2024/03/27 00:57:09;;;;;;;;;;;;;;;15.23;46.35;100416.88;5035619;28;1393;-52
2024/03/27 00:59:34;;;;;;;;;;;;;;;16.12;47.45;100413.03;5036323;28;1389;-50
2024/03/27 01:02:01;;;;;;;;;;;;;;;17.62;45.14;100406.59;5035405;28;1420;-50
2024/03/27 01:04:26;;;;;;;;;;;;;;;16.08;47.57;100411.59;5036222;28;1364;-47
2024/03/27 01:06:52;;;;;;;;;;;;;;;15.60;47.45;100403.56;5035984;28;1428;-49
2024/03/27 01:09:18;;;;;;;;;;;;;;;15.47;46.83;100416.88;5036206;28;1971;-46
2024/03/27 01:11:44;;;;;;;;;;;;;;;15.36;45.85;100416.81;5035672;28;1277;-49
2024/03/27 01:14:10;;;;;;;;;;;;;;;16.96;46.64;100409.19;5035839;28;1286;-50
2024/03/27 01:16:35;;;;;;;;;;;;;;;15.88;47.51;100414.75;5033457;28;1091;-48
2024/03/27 01:19:01;;;;;;;;;;;;;;;15.52;46.84;100411.22;5036164;28;1412;-46
2024/03/27 01:21:26;;;;;;;;;;;;;;;15.83;47.80;100419.53;5035739;28;1124;-48
2024/03/27 01:23:52;;;;;;;;;;;;;;;16.95;45.99;100417.31;5035547;28;1306;-50
2024/03/27 01:26:17;;;;;;;;;;;;;;;15.77;47.60;100406.75;5036025;28;1088;-47
2024/03/27 01:28:43;;;;;;;;;;;;;;;15.54;47.01;100412.81;5036086;28;1910;-50
2024/03/27 01:31:08;;;;;;;;;;;;;;;15.71;47.86;100421.34;5040159;28;1100;-50
2024/03/27 01:33:33;;;;;;;;;;;;;;;17.36;45.39;100426.44;5039652;28;1305;-49
2024/03/27 01:35:59;;;;;;;;;;;;;;;15.91;47.62;100422.47;5039396;28;1128;-49
2024/03/27 01:38:24;;;;;;;;;;;;;;;15.59;47.17;100417.78;5040059;28;1364;-50
2024/03/27 01:40:50;;;;;;;;;;;;;;;17.43;46.00;100425.91;5039752;28;1124;-51
2024/03/27 01:43:16;;;;;;;;;;;;;;;16.48;47.09;100419.09;5039400;28;1380;-48
2024/03/27 01:45:41;;;;;;;;;;;;;;;15.81;47.17;100417.97;5039699;28;1139;-47
2024/03/27 01:48:07;;;;;;;;;;;;;;;15.74;46.70;100428.19;5039081;28;1909;-50
2024/03/27 01:50:34;;;;;;;;;;;;;;;16.15;47.73;100429.56;5054554;28;1031;-46
2024/03/27 01:52:59;;;;;;;;;;;;;;;16.35;47.26;100421.03;5021491;28;1379;-51
2024/03/27 01:55:25;;;;;;;;;;;;;;;15.68;47.25;100418.91;5021369;28;1172;-48
2024/03/27 01:57:51;;;;;;;;;;;;;;;15.64;46.36;100423.59;5039266;28;1381;-49
2024/03/27 02:00:16;;;;;;;;;;;;;;;15.33;46.25;100420.53;5021618;28;1322;-49
2024/03/27 02:02:42;;;;;;;;;;;;;;;15.29;45.67;100417.28;5039211;28;1302;-48
2024/03/27 02:05:08;;;;;;;;;;;;;;;15.12;45.55;100407.03;5021499;28;1350;-51
2024/03/27 02:07:33;;;;;;;;;;;;;;;16.34;46.83;100422.00;5039220;28;1388;-49
2024/03/27 02:10:00;;;;;;;;;;;;;;;16.24;46.69;100424.50;5038869;28;1983;-48
2024/03/27 02:12:25;;;;;;;;;;;;;;;15.49;47.41;100430.88;5021331;28;1478;-49
2024/03/27 02:14:51;;;;;;;;;;;;;;;15.42;46.28;100427.81;5038644;28;1517;-46
2024/03/27 02:17:16;;;;;;;;;;;;;;;16.53;47.03;100419.59;5038597;28;1385;-48
2024/03/27 02:19:42;;;;;;;;;;;;;;;16.07;47.19;100412.53;5038652;28;1325;-47
2024/03/27 02:22:07;;;;;;;;;;;;;;;15.64;47.29;100414.78;5039036;28;1301;-49
2024/03/27 02:24:36;;;;;;;;;;;;;;;15.40;46.53;100411.19;5038484;28;1424;-45
2024/03/27 02:27:02;;;;;;;;;;;;;;;16.27;47.20;100413.66;5021195;28;1342;-48
2024/03/27 02:29:27;;;;;;;;;;;;;;;16.88;46.17;100408.97;5038772;28;1910;-48
2024/03/27 02:31:53;;;;;;;;;;;;;;;15.83;47.63;100413.41;5039256;28;1353;-47
2024/03/27 02:34:18;;;;;;;;;;;;;;;15.53;46.87;100412.94;5038559;28;1071;-46
2024/03/27 02:36:44;;;;;;;;;;;;;;;15.35;46.17;100417.78;5038131;28;1298;-47
2024/03/27 02:39:11;;;;;;;;;;;;;;;15.20;45.72;100415.28;5039065;28;1108;-47
2024/03/27 02:41:36;;;;;;;;;;;;;;;15.15;45.24;100417.41;5038044;28;1389;-49
2024/03/27 02:44:01;;;;;;;;;;;;;;;16.16;46.93;100419.81;5038505;28;1127;-50
2024/03/27 02:46:27;;;;;;;;;;;;;;;16.81;46.34;100426.34;5020799;28;1287;-56
2024/03/27 02:48:52;;;;;;;;;;;;;;;15.85;46.92;100422.94;5037565;28;1907;-48
2024/03/27 02:51:18;;;;;;;;;;;;;;;15.38;47.19;100428.16;5038587;28;1111;-46
2024/03/27 02:53:44;;;;;;;;;;;;;;;15.70;47.35;100424.09;5038046;28;1043;-49
2024/03/27 02:56:09;;;;;;;;;;;;;;;17.47;45.58;100416.69;5038080;28;1063;-49
2024/03/27 02:58:34;;;;;;;;;;;;;;;15.97;47.50;100415.84;5038496;28;1164;-49
2024/03/27 03:01:00;;;;;;;;;;;;;;;15.64;47.14;100414.78;5053701;28;862;-51
2024/03/27 03:03:25;;;;;;;;;;;;;;;15.50;46.52;100410.50;5039522;28;1340;-51
2024/03/27 03:05:51;;;;;;;;;;;;;;;15.21;46.13;100405.53;5046619;28;959;-48
2024/03/27 03:08:16;;;;;;;;;;;;;;;15.59;46.84;100398.38;5038087;28;1906;-52
2024/03/27 03:10:42;;;;;;;;;;;;;;;17.35;45.80;100400.78;5038605;28;1085;-52
2024/03/27 03:13:08;;;;;;;;;;;;;;;16.27;47.19;100397.72;5037661;28;1107;-50
2024/03/27 03:15:33;;;;;;;;;;;;;;;15.77;46.83;100404.09;5048294;28;1003;-50
2024/03/27 03:17:59;;;;;;;;;;;;;;;15.47;46.87;100395.66;5037459;28;1039;-48
2024/03/27 03:20:24;;;;;;;;;;;;;;;17.02;46.34;100405.19;5037594;28;1076;-51
2024/03/27 03:22:52;;;;;;;;;;;;;;;16.12;47.38;100392.66;5037595;28;1016;-48
2024/03/27 03:25:18;;;;;;;;;;;;;;;15.67;46.91;100396.00;5037234;28;889;-51
2024/03/27 03:27:43;;;;;;;;;;;;;;;15.48;46.38;100394.69;5038952;28;1902;-51
2024/03/27 03:30:09;;;;;;;;;;;;;;;15.32;46.07;100395.00;5037773;28;1507;-49
2024/03/27 03:32:34;;;;;;;;;;;;;;;16.05;47.08;100394.06;5037534;28;1127;-50
2024/03/27 03:35:00;;;;;;;;;;;;;;;16.44;46.77;100401.72;5037436;28;1099;-51
2024/03/27 03:37:25;;;;;;;;;;;;;;;15.65;47.35;100393.44;5036816;28;1237;-51
2024/03/27 03:39:51;;;;;;;;;;;;;;;16.43;47.62;100396.53;5037490;28;997;-50
2024/03/27 03:42:16;;;;;;;;;;;;;;;16.42;47.03;100401.00;5037158;28;1146;-49
2024/03/27 03:44:42;;;;;;;;;;;;;;;15.81;46.91;100387.00;5037443;28;1090;-49
2024/03/27 03:47:07;;;;;;;;;;;;;;;15.51;46.87;100394.50;5036674;28;1004;-50
2024/03/27 03:49:33;;;;;;;;;;;;;;;15.30;46.06;100387.16;5036752;28;1965;-50
2024/03/27 03:51:58;;;;;;;;;;;;;;;16.92;46.72;100385.63;5036851;28;1100;-51
2024/03/27 03:54:24;;;;;;;;;;;;;;;16.24;47.25;100390.00;5036877;28;1059;-51
2024/03/27 03:56:49;;;;;;;;;;;;;;;15.72;46.71;100395.63;5036560;28;1099;-49
2024/03/27 03:59:15;;;;;;;;;;;;;;;15.39;46.53;100385.66;5036716;28;1129;-48
2024/03/27 04:01:40;;;;;;;;;;;;;;;15.24;46.34;100382.31;5036733;28;1044;-48
2024/03/27 04:04:06;;;;;;;;;;;;;;;16.12;47.45;100383.84;5037085;28;1091;-51
2024/03/27 04:06:32;;;;;;;;;;;;;;;17.62;45.20;100380.88;5036466;28;1112;-50
2024/03/27 04:08:57;;;;;;;;;;;;;;;16.07;47.37;100381.53;5037568;28;1918;-49
2024/03/27 04:11:23;;;;;;;;;;;;;;;15.60;47.14;100387.66;5018974;28;1087;-52
2024/03/27 04:13:48;;;;;;;;;;;;;;;16.36;47.77;100383.75;5036939;28;870;-49
2024/03/27 04:16:15;;;;;;;;;;;;;;;17.06;45.87;100374.75;5036871;28;1211;-50
2024/03/27 04:18:40;;;;;;;;;;;;;;;15.99;47.45;100371.53;5036048;28;1377;-52
2024/03/27 04:21:06;;;;;;;;;;;;;;;15.75;47.13;100371.53;5036802;28;1059;-48
2024/03/27 04:23:31;;;;;;;;;;;;;;;15.54;46.50;100369.56;5036649;28;1105;-48
2024/03/27 04:25:57;;;;;;;;;;;;;;;15.47;45.96;100366.50;5036598;28;866;-54
2024/03/27 04:28:22;;;;;;;;;;;;;;;16.43;47.05;100373.50;5036065;28;1910;-56
2024/03/27 04:30:48;;;;;;;;;;;;;;;16.62;46.77;100380.00;5036557;28;1230;-57
2024/03/27 04:33:13;;;;;;;;;;;;;;;15.81;47.74;100378.19;5036492;28;1162;-56
2024/03/27 04:35:39;;;;;;;;;;;;;;;15.53;47.06;100387.25;5036122;28;1087;-58
2024/03/27 04:38:05;;;;;;;;;;;;;;;15.39;46.74;100390.09;5035728;28;938;-58
2024/03/27 04:40:31;;;;;;;;;;;;;;;17.06;46.43;100400.47;5036095;28;1155;-59
2024/03/27 04:42:57;;;;;;;;;;;;;;;15.93;47.37;100400.28;5036411;28;1024;-59
2024/03/27 04:45:22;;;;;;;;;;;;;;;15.53;47.38;100397.84;5036054;28;1112;-59
2024/03/27 04:47:48;;;;;;;;;;;;;;;15.44;46.27;100390.59;5035770;28;1969;-58
2024/03/27 04:50:13;;;;;;;;;;;;;;;15.71;47.12;100393.97;5035804;28;1162;-55
2024/03/27 04:52:39;;;;;;;;;;;;;;;17.45;45.87;100389.41;5029219;28;1321;-54
2024/03/27 04:55:04;;;;;;;;;;;;;;;16.60;46.96;100398.72;5036565;28;1261;-59
2024/03/27 04:57:30;;;;;;;;;;;;;;;15.84;47.63;100415.94;5035932;28;1139;-58
2024/03/27 04:59:56;;;;;;;;;;;;;;;15.62;46.96;100406.94;5035485;28;1107;-61
2024/03/27 05:02:21;;;;;;;;;;;;;;;16.08;47.81;100406.28;5035840;28;1028;-57
2024/03/27 05:04:47;;;;;;;;;;;;;;;17.95;45.26;100411.91;5035895;28;1214;-57
2024/03/27 05:07:12;;;;;;;;;;;;;;;16.56;46.87;100407.03;5035786;28;1063;-56
2024/03/27 05:09:38;;;;;;;;;;;;;;;17.94;44.51;100410.22;5036640;28;1902;-58
2024/03/27 05:12:04;;;;;;;;;;;;;;;17.29;45.81;100409.28;5035993;28;1059;-58
2024/03/27 05:14:29;;;;;;;;;;;;;;;17.25;45.52;100408.66;5035964;28;942;-56
2024/03/27 05:16:56;;;;;;;;;;;;;;;16.72;46.79;100399.56;5035848;28;1107;-57
2024/03/27 05:19:22;;;;;;;;;;;;;;;16.55;47.37;100413.34;5036549;28;1044;-59
2024/03/27 05:21:48;;;;;;;;;;;;;;;16.47;47.64;100406.81;5046824;28;1103;-57
2024/03/27 05:24:13;;;;;;;;;;;;;;;16.35;47.78;100415.75;5035808;28;1099;-58
2024/03/27 05:26:39;;;;;;;;;;;;;;;16.07;48.40;100415.19;5035134;28;1036;-61
2024/03/27 05:29:04;;;;;;;;;;;;;;;15.99;48.26;100416.63;5035410;28;1989;-57
2024/03/27 05:31:30;;;;;;;;;;;;;;;15.81;48.75;100423.28;5035841;28;1161;-57
2024/03/27 05:33:56;;;;;;;;;;;;;;;15.71;48.92;100416.03;5035660;28;1079;-56
2024/03/27 05:36:22;;;;;;;;;;;;;;;15.65;49.11;100419.13;5035255;28;1246;-56
2024/03/27 05:38:48;;;;;;;;;;;;;;;15.55;49.01;100419.81;5034887;28;1167;-58
2024/03/27 05:41:13;;;;;;;;;;;;;;;15.42;49.46;100422.53;5035635;28;1142;-57
2024/03/27 05:43:38;;;;;;;;;;;;;;;15.34;49.45;100430.19;5035697;28;1047;-54
2024/03/27 05:46:04;;;;;;;;;;;;;;;15.25;49.40;100431.69;5035594;28;1075;-57
2024/03/27 05:48:30;;;;;;;;;;;;;;;16.20;47.73;100431.03;5035507;28;1977;-56
2024/03/27 05:50:56;;;;;;;;;;;;;;;17.35;45.20;100430.03;5035175;28;1120;-58
2024/03/27 05:53:22;;;;;;;;;;;;;;;16.67;46.63;100428.28;5035865;28;1090;-57
2024/03/27 05:56:13;;;;;;;;;;;;;;;16.16;47.45;100425.09;5035558;28;1116;-57
2024/03/27 05:58:39;;;;;;;;;;;;;;;15.83;48.32;100422.19;5032550;28;1707;-57
2024/03/27 06:01:04;;;;;;;;;;;;;;;15.59;49.17;100423.09;5035108;28;1036;-58
2024/03/27 06:03:30;;;;;;;;;;;;;;;15.50;48.95;100421.94;5035583;28;1068;-57
2024/03/27 06:05:55;;;;;;;;;;;;;;;15.37;49.07;100426.47;5017965;28;1145;-50
2024/03/27 06:08:21;;;;;;;;;;;;;;;15.57;49.41;100432.94;5035176;28;1971;-55
2024/03/27 06:10:48;;;;;;;;;;;;;;;17.02;45.62;100432.63;5035257;28;1063;-53
2024/03/27 06:13:13;;;;;;;;;;;;;;;17.10;45.27;100440.00;5034919;28;1083;-55
2024/03/27 06:15:39;;;;;;;;;;;;;;;16.24;47.37;100438.63;5035866;28;1087;-55
2024/03/27 06:18:04;;;;;;;;;;;;;;;15.87;48.47;100439.59;5038832;28;1110;-56
2024/03/27 06:20:32;;;;;;;;;;;;;;;15.68;48.69;100437.47;5038651;28;1127;-59
2024/03/27 06:22:58;;;;;;;;;;;;;;;15.54;48.66;100438.47;5038524;28;1159;-51
2024/03/27 06:25:23;;;;;;;;;;;;;;;15.43;48.97;100439.28;5038643;28;1215;-58
2024/03/27 06:27:49;;;;;;;;;;;;;;;15.34;49.41;100440.78;5038492;28;1076;-57
2024/03/27 06:30:14;;;;;;;;;;;;;;;16.18;49.66;100441.78;5038854;28;1971;-56
2024/03/27 06:32:41;;;;;;;;;;;;;;;17.36;45.43;100439.72;5038183;28;1079;-53
2024/03/27 06:35:07;;;;;;;;;;;;;;;16.84;46.25;100440.25;5035865;28;1302;-54
2024/03/27 06:37:33;;;;;;;;;;;;;;;16.21;47.84;100440.69;5037737;28;1175;-53
2024/03/27 06:39:59;;;;;;;;;;;;;;;15.87;48.38;100444.88;5028328;28;1127;-50
2024/03/27 06:42:24;;;;;;;;;;;;;;;16.83;48.77;100451.81;5038406;28;1099;-56
2024/03/27 06:44:50;;;;;;;;;;;;;;;15.86;48.83;100439.69;5038849;28;1084;-60
2024/03/27 06:47:16;;;;;;;;;;;;;;;15.49;49.91;100443.28;5038342;28;1092;-66
2024/03/27 06:49:41;;;;;;;;;;;;;;;15.35;50.26;100446.94;5035376;28;1906;-62
2024/03/27 06:52:07;;;;;;;;;;;;;;;15.16;50.06;100451.75;5034154;28;1154;-61
2024/03/27 06:54:32;;;;;;;;;;;;;;;16.31;48.43;100451.44;5037387;28;1043;-61
2024/03/27 06:56:58;;;;;;;;;;;;;;;17.39;46.06;100449.25;5026711;28;1072;-59
2024/03/27 06:59:23;;;;;;;;;;;;;;;16.88;46.65;100451.47;5038033;28;1111;-59
2024/03/27 07:01:49;;;;;;;;;;;;;;;16.17;48.23;100450.69;5038116;28;1219;-60
2024/03/27 07:04:14;;;;;;;;;;;;;;;15.82;49.32;100455.00;5037952;28;1199;-59
2024/03/27 07:06:40;;;;;;;;;;;;;;;15.55;49.74;100458.72;5030627;28;1294;-59
2024/03/27 07:09:05;;;;;;;;;;;;;;;15.58;49.73;100465.63;5019341;28;1976;-61
2024/03/27 07:11:31;;;;;;;;;;;;;;;16.68;47.86;100472.50;5025336;28;1330;-57
2024/03/27 07:13:56;;;;;;;;;;;;;;;18.21;45.63;100462.97;5027981;28;1087;-60
2024/03/27 07:16:22;;;;;;;;;;;;;;;19.70;41.29;100469.66;5038036;28;1131;-62
2024/03/27 07:18:47;;;;;;;;;;;;;;;20.96;39.20;100459.06;5037973;28;1043;-62
2024/03/27 07:21:13;;;;;;;;;;;;;;;21.82;37.42;100469.47;5037451;28;1249;-71
2024/03/27 07:23:38;;;;;;;;;;;;;;;21.87;36.88;100469.03;5037877;28;1067;-64
2024/03/27 07:26:08;;;;;;;;;;;;;;;22.07;36.57;100480.41;5037077;28;980;-63
2024/03/27 07:28:33;;;;;;;;;;;;;;;22.28;36.16;100479.22;5037054;28;1906;-67
2024/03/27 07:30:59;;;;;;;;;;;;;;;22.33;36.29;100468.88;5037860;28;1035;-68
2024/03/27 07:33:25;;;;;;;;;;;;;;;22.15;36.73;100471.59;5036951;28;1063;-67
2024/03/27 07:35:50;;;;;;;;;;;;;;;22.31;36.67;100468.19;5037836;28;1217;-64
2024/03/27 07:38:16;;;;;;;;;;;;;;;22.21;36.92;100459.41;5037281;28;1140;-67
2024/03/27 07:40:41;;;;;;;;;;;;;;;22.31;36.56;100470.00;5037213;28;1091;-64
2024/03/27 07:43:07;;;;;;;;;;;;;;;22.53;36.04;100471.34;5037697;28;1091;-64
2024/03/27 07:45:32;;;;;;;;;;;;;;;22.85;35.38;100475.22;5037112;28;1123;-67
2024/03/27 07:47:58;;;;;;;;;;;;;;;22.90;35.27;100471.22;5019459;28;1902;-59
2024/03/27 07:50:23;;;;;;;;;;;;;;;22.70;35.68;100461.56;5036700;28;1163;-64
2024/03/27 07:52:49;;;;;;;;;;;;;;;22.70;35.71;100466.94;5052452;28;1091;-62
2024/03/27 07:55:14;;;;;;;;;;;;;;;22.41;36.49;100468.06;5035898;28;1061;-63
2024/03/27 07:57:40;;;;;;;;;;;;;;;22.79;35.80;100467.81;5029400;28;1305;-63
2024/03/27 08:00:11;;;;;;;;;;;;;;;23.42;34.79;100464.84;5020293;28;1103;-64
2024/03/27 08:02:37;;;;;;;;;;;;;;;22.80;35.94;100469.50;5036348;28;1092;-64
2024/03/27 08:05:05;;;;;;;;;;;;;;;23.44;35.11;100473.56;5036685;28;1036;-66
2024/03/27 08:07:31;;;;;;;;;;;;;;;23.94;34.42;100467.44;5023695;28;1044;-65
2024/03/27 08:09:56;;;;;;;;;;;;;;;23.30;35.52;100469.69;5029782;28;1991;-65
2024/03/27 08:12:22;;;;;;;;;;;;;;;23.56;35.39;100468.72;5031849;28;1080;-63
2024/03/27 08:14:47;;;;;;;;;;;;;;;23.58;35.49;100468.56;5036456;28;1123;-60
2024/03/27 08:17:13;;;;;;;;;;;;;;;23.59;35.57;100471.09;5036311;28;1147;-64
2024/03/27 08:19:41;;;;;;;;;;;;;;;23.79;35.53;100461.88;5036691;28;1020;-61
2024/03/27 08:22:09;;;;;;;;;;;;;;;23.97;35.08;100461.72;5018546;28;1171;-64
2024/03/27 08:24:35;;;;;;;;;;;;;;;24.16;35.19;100465.91;5036394;28;1078;-66
2024/03/27 08:27:01;;;;;;;;;;;;;;;24.26;34.78;100462.19;5035791;28;1074;-65
2024/03/27 08:29:26;;;;;;;;;;;;;;;24.18;34.96;100461.22;5036100;28;1910;-60
2024/03/27 08:31:52;;;;;;;;;;;;;;;24.19;35.24;100462.06;5036948;28;1047;-63
2024/03/27 08:34:17;;;;;;;;;;;;;;;24.19;35.07;100467.44;5036190;28;1134;-59
2024/03/27 08:36:43;;;;;;;;;;;;;;;24.66;34.52;100456.88;5035814;28;1159;-55
2024/03/27 08:39:09;;;;;;;;;;;;;;;24.47;35.01;100453.59;5018423;28;1872;-60
2024/03/27 08:41:35;;;;;;;;;;;;;;;24.64;35.03;100450.84;5024283;28;1295;-63
2024/03/27 08:44:03;;;;;;;;;;;;;;;24.67;35.32;100451.31;5035515;28;1140;-64
2024/03/27 08:46:28;;;;;;;;;;;;;;;24.64;35.47;100454.38;5035515;28;1309;-62
2024/03/27 08:48:54;;;;;;;;;;;;;;;24.79;35.36;100453.66;5035882;28;1973;-60
2024/03/27 08:51:20;;;;;;;;;;;;;;;25.19;34.74;100450.97;5035651;28;1126;-60
2024/03/27 08:53:47;;;;;;;;;;;;;;;25.52;34.08;100448.06;5027580;28;1080;-63
2024/03/27 08:56:13;;;;;;;;;;;;;;;25.30;34.58;100450.56;5023069;28;1156;-64
2024/03/27 08:58:39;;;;;;;;;;;;;;;25.39;34.63;100443.25;5024676;28;1183;-62
2024/03/27 09:01:06;;;;;;;;;;;;;;;25.27;34.90;100445.53;5035579;28;1215;-61
2024/03/27 09:03:31;;;;;;;;;;;;;;;25.41;34.61;100448.47;5035218;28;1108;-62
2024/03/27 09:05:57;;;;;;;;;;;;;;;25.53;34.55;100441.66;5027423;28;1099;-61
2024/03/27 09:08:22;;;;;;;;;;;;;;;25.63;34.61;100437.91;5032902;28;1910;-61
2024/03/27 09:10:48;;;;;;;;;;;;;;;25.90;34.04;100439.19;5034330;28;1119;-64
2024/03/27 09:13:13;;;;;;;;;;;;;;;25.64;34.64;100434.22;5024157;28;1103;-65
2024/03/27 09:15:39;;;;;;;;;;;;;;;25.96;34.12;100431.41;5035459;28;1076;-58
2024/03/27 09:18:05;;;;;;;;;;;;;;;25.52;34.65;100440.00;5035472;28;1036;-61
2024/03/27 09:20:31;;;;;;;;;;;;;;;26.22;34.09;100443.63;5035490;28;1266;-62
2024/03/27 09:22:57;;;;;;;;;;;;;;;26.16;34.30;100451.41;5035713;28;1135;-60
2024/03/27 09:25:22;;;;;;;;;;;;;;;25.92;34.46;100449.81;5035840;28;1056;-58
2024/03/27 09:27:48;;;;;;;;;;;;;;;25.92;34.65;100449.81;5034880;28;900;-64
2024/03/27 09:30:16;;;;;;;;;;;;;;;25.91;34.34;100448.09;5035100;28;1981;-55
2024/03/27 09:32:42;;;;;;;;;;;;;;;25.94;33.82;100444.22;5034390;28;1083;-62
2024/03/27 09:35:08;;;;;;;;;;;;;;;25.83;34.33;100440.94;5033425;28;1312;-62
2024/03/27 09:37:34;;;;;;;;;;;;;;;25.59;34.35;100448.16;5033517;28;1112;-62
2024/03/27 09:39:59;;;;;;;;;;;;;;;26.12;33.54;100446.56;5033412;28;1131;-62
2024/03/27 09:42:25;;;;;;;;;;;;;;;26.26;33.31;100455.69;5034276;28;1099;-57
2024/03/27 09:44:50;;;;;;;;;;;;;;;26.70;32.70;100450.53;5017509;28;1186;-59
2024/03/27 09:47:16;;;;;;;;;;;;;;;27.10;31.79;100453.75;5035212;28;1439;-55
2024/03/27 09:49:41;;;;;;;;;;;;;;;27.29;31.25;100456.88;5051005;28;1989;-61
2024/03/27 09:52:07;;;;;;;;;;;;;;;27.34;31.27;100454.41;5039255;28;1072;-63
2024/03/27 09:54:33;;;;;;;;;;;;;;;25.91;33.26;100450.81;5054452;28;1055;-62
2024/03/27 09:56:58;;;;;;;;;;;;;;;22.61;40.22;100444.59;5039437;28;1226;-65
2024/03/27 09:59:24;;;;;;;;;;;;;;;21.49;42.04;100451.25;5039126;28;1146;-65
2024/03/27 10:02:00;;;;;;;;;;;;;;;18.78;48.59;100439.56;5017231;28;1255;-62
2024/03/27 10:04:25;;;;;;;;;;;;;;;17.79;49.93;100423.84;5038717;28;1330;-65
2024/03/27 10:06:51;;;;;;;;;;;;;;;16.62;51.93;100420.69;5037397;28;1192;-60
2024/03/27 10:09:17;;;;;;;;;;;;;;;17.84;50.06;100420.78;5032477;28;1918;-59
2024/03/27 10:11:43;;;;;;;;;;;;;;;19.97;42.76;100421.06;5038940;28;1079;-59
2024/03/27 10:14:09;;;;;;;;;;;;;;;20.70;38.74;100426.78;5038689;28;1142;-63
2024/03/27 10:16:34;;;;;;;;;;;;;;;20.65;37.22;100435.25;5038681;28;909;-60
2024/03/27 10:19:00;;;;;;;;;;;;;;;20.54;35.25;100439.78;5038817;28;1114;-56
2024/03/27 10:21:26;;;;;;;;;;;;;;;20.32;34.67;100424.94;5038336;28;1123;-63
2024/03/27 10:23:51;;;;;;;;;;;;;;;20.30;33.37;100432.28;5054268;28;1094;-59
2024/03/27 10:26:17;;;;;;;;;;;;;;;19.76;33.42;100422.06;5038656;28;1129;-59
2024/03/27 10:28:42;;;;;;;;;;;;;;;19.61;33.43;100427.81;5053721;28;1910;-59
2024/03/27 10:31:08;;;;;;;;;;;;;;;19.60;32.61;100427.97;5038786;28;1194;-61
2024/03/27 10:33:33;;;;;;;;;;;;;;;19.19;33.14;100442.22;5038822;28;1111;-58
2024/03/27 10:35:59;;;;;;;;;;;;;;;19.15;31.94;100431.00;5037915;28;1244;-57
2024/03/27 10:38:28;;;;;;;;;;;;;;;18.84;32.16;100447.00;5053708;28;1035;-58
2024/03/27 10:40:56;;;;;;;;;;;;;;;18.38;32.55;100442.06;5053033;28;1161;-56
2024/03/27 10:43:23;;;;;;;;;;;;;;;18.89;31.44;100443.94;5038137;28;1204;-60
2024/03/27 10:45:48;;;;;;;;;;;;;;;18.60;32.88;100446.34;5038429;28;1028;-62
2024/03/27 10:48:14;;;;;;;;;;;;;;;18.58;32.34;100450.13;5038217;28;1922;-60
2024/03/27 10:50:39;;;;;;;;;;;;;;;18.25;34.15;100444.91;5037716;28;1262;-57
2024/03/27 10:53:05;;;;;;;;;;;;;;;18.32;32.63;100445.22;5016396;28;1326;-59
2024/03/27 10:55:36;;;;;;;;;;;;;;;18.13;32.40;100428.19;5053722;28;1161;-61
2024/03/27 10:58:03;;;;;;;;;;;;;;;18.15;32.08;100428.03;5038303;28;1083;-61
2024/03/27 11:00:28;;;;;;;;;;;;;;;18.16;31.63;100425.25;5037483;28;1024;-59
2024/03/27 11:02:54;;;;;;;;;;;;;;;18.02;32.40;100422.88;5037110;28;1230;-59
2024/03/27 11:05:19;;;;;;;;;;;;;;;17.85;31.51;100419.84;5037729;28;1061;-61
2024/03/27 11:07:48;;;;;;;;;;;;;;;17.77;31.67;100409.00;5038121;28;1281;-56
2024/03/27 11:10:23;;;;;;;;;;;;;;;17.76;31.51;100394.81;5037537;28;1977;-57
2024/03/27 11:12:49;;;;;;;;;;;;;;;17.53;31.74;100394.94;5053292;28;1154;-58
2024/03/27 11:15:14;;;;;;;;;;;;;;;17.31;31.97;100386.06;5038115;28;1128;-56
2024/03/27 11:17:40;;;;;;;;;;;;;;;17.68;31.96;100386.66;5037361;28;949;-61
2024/03/27 11:20:06;;;;;;;;;;;;;;;17.29;33.05;100388.00;5019614;28;1336;-57
2024/03/27 11:22:31;;;;;;;;;;;;;;;17.78;34.01;100397.34;5019775;28;1032;-59
2024/03/27 11:24:57;;;;;;;;;;;;;;;17.78;36.12;100392.91;5043695;28;1283;-60
2024/03/27 11:27:26;;;;;;;;;;;;;;;18.04;37.86;100378.31;5036003;28;1263;-58
2024/03/27 11:30:01;;;;;;;;;;;;;;;18.48;38.36;100387.00;5037211;28;1902;-57
2024/03/27 11:32:33;;;;;;;;;;;;;;;18.38;39.84;100379.94;5031139;28;1306;-61
2024/03/27 11:34:59;;;;;;;;;;;;;;;18.44;40.52;100388.25;5037263;28;1250;-56
2024/03/27 11:37:24;;;;;;;;;;;;;;;18.77;40.29;100369.41;5037314;28;1245;-57
2024/03/27 11:39:50;;;;;;;;;;;;;;;18.63;41.00;100368.00;5036965;28;1356;-59
2024/03/27 11:42:15;;;;;;;;;;;;;;;18.65;40.18;100360.69;5039722;28;1217;-60
2024/03/27 11:44:41;;;;;;;;;;;;;;;18.55;39.14;100354.50;5039780;28;906;-59
2024/03/27 11:47:07;;;;;;;;;;;;;;;18.36;39.53;100366.75;5037415;28;1220;-54
2024/03/27 11:49:32;;;;;;;;;;;;;;;18.66;37.42;100367.72;5052258;28;2013;-59
2024/03/27 11:51:58;;;;;;;;;;;;;;;18.35;38.14;100359.75;5036337;28;1130;-60
2024/03/27 11:54:26;;;;;;;;;;;;;;;18.20;37.56;100364.59;5052646;28;1075;-59
2024/03/27 11:56:52;;;;;;;;;;;;;;;18.40;37.44;100357.50;5037170;28;1139;-57
2024/03/27 11:59:17;;;;;;;;;;;;;;;18.25;36.46;100359.69;5037379;28;1340;-56
2024/03/27 12:01:43;;;;;;;;;;;;;;;18.35;35.74;100349.13;5036864;28;1269;-57
2024/03/27 12:04:08;;;;;;;;;;;;;;;18.34;35.30;100350.94;5052985;28;1321;-57
2024/03/27 12:06:34;;;;;;;;;;;;;;;18.34;35.18;100342.09;5036871;28;1013;-56
2024/03/27 12:09:00;;;;;;;;;;;;;;;18.30;35.36;100352.16;5036301;28;1902;-60
2024/03/27 12:11:25;;;;;;;;;;;;;;;18.20;35.26;100359.28;5038534;28;1103;-60
2024/03/27 12:13:51;;;;;;;;;;;;;;;18.12;35.15;100354.56;5018975;28;1150;-59
2024/03/27 12:16:16;;;;;;;;;;;;;;;18.09;35.03;100358.34;5043521;28;1545;-58
2024/03/27 12:18:42;;;;;;;;;;;;;;;18.29;34.63;100352.28;5044874;28;1321;-60
2024/03/27 12:21:08;;;;;;;;;;;;;;;18.06;34.90;100344.44;5035879;28;1218;-57
2024/03/27 12:23:36;;;;;;;;;;;;;;;17.99;35.01;100344.97;5037012;28;1155;-56
2024/03/27 12:26:02;;;;;;;;;;;;;;;18.10;34.50;100345.88;5039408;28;1304;-57
2024/03/27 12:28:29;;;;;;;;;;;;;;;17.99;34.74;100350.31;5036782;28;1906;-56
2024/03/27 12:30:58;;;;;;;;;;;;;;;17.57;36.76;100350.28;5018276;28;1116;-62
2024/03/27 12:33:25;;;;;;;;;;;;;;;17.53;37.66;100340.91;5036640;28;1028;-57
2024/03/27 12:35:51;;;;;;;;;;;;;;;17.74;38.32;100346.22;5021014;28;1314;-56
2024/03/27 12:38:17;;;;;;;;;;;;;;;17.71;36.57;100352.66;5037451;28;1373;-60
2024/03/27 12:40:43;;;;;;;;;;;;;;;18.15;36.56;100351.66;5046005;28;1384;-61